Time;durP1;ratioP1;P1;durP2;ratioP2;P2;SDS_P1;SDS_P2;PMS_P1;PMS_P2;Temp;Humidity;BMP_temperature;BMP_pressure;BME280_temperature;BME280_humidity;BME280_pressure;Samples;Min_cycle;Max_cycle;Signal;HPM_P1;HPM_P2
2023/09/08 00:00:49;;;;;;;6.63;5.95;;;17.70;99.90;;;;;;4960432;28;20350;-79
2023/09/08 00:03:15;;;;;;;6.40;5.80;;;17.60;99.90;;;;;;4976467;28;20684;-77
2023/09/08 00:05:41;;;;;;;7.80;6.32;;;17.60;99.90;;;;;;4975842;28;20424;-78
2023/09/08 00:08:06;;;;;;;6.68;5.50;;;17.60;92.80;;;;;;4957896;28;20185;-77
2023/09/08 00:10:32;;;;;;;6.15;5.65;;;17.50;99.90;;;;;;4955785;28;20177;-79
2023/09/08 00:12:57;;;;;;;6.00;5.45;;;17.40;99.90;;;;;;4971415;28;20264;-79
2023/09/08 00:15:23;;;;;;;6.85;6.25;;;17.50;99.90;;;;;;4974102;28;20193;-78
2023/09/08 00:17:49;;;;;;;6.57;5.97;;;16.20;99.90;;;;;;4959514;28;20181;-77
2023/09/08 00:20:15;;;;;;;6.20;5.50;;;;;;;;;;4976099;28;20203;-78
2023/09/08 00:22:40;;;;;;;7.60;5.88;;;17.50;99.90;;;;;;4958642;28;20584;-80
2023/09/08 00:25:06;;;;;;;6.32;5.72;;;17.40;99.90;;;;;;4977869;28;20209;-78
2023/09/08 00:27:32;;;;;;;6.43;5.82;;;17.30;99.90;;;;;;4978918;28;20236;-78
2023/09/08 00:29:58;;;;;;;6.65;6.00;;;17.30;99.90;;;;;;4960959;28;20185;-83
2023/09/08 00:32:24;;;;;;;7.70;6.35;;;17.20;99.90;;;;;;4960426;28;20220;-79
2023/09/08 00:34:49;;;;;;;6.50;5.90;;;17.10;99.90;;;;;;4977973;28;20207;-76
2023/09/08 00:37:15;;;;;;;7.13;6.25;;;17.10;99.90;;;;;;4960499;28;20177;-79
2023/09/08 00:39:40;;;;;;;7.03;6.43;;;17.20;99.90;;;;;;4977447;28;20181;-79
2023/09/08 00:42:09;;;;;;;6.35;5.70;;;17.00;99.90;;;;;;4977823;28;20243;-79
2023/09/08 00:44:35;;;;;;;7.15;6.45;;;17.00;99.90;;;;;;4977926;28;20193;-80
2023/09/08 00:47:00;;;;;;;6.07;5.47;;;17.00;99.90;;;;;;4978388;28;20287;-78
2023/09/08 00:49:26;;;;;;;6.55;5.95;;;17.00;99.90;;;;;;4977349;28;20611;-80
2023/09/08 00:51:52;;;;;;;7.03;6.25;;;16.80;1.00;;;;;;4959228;28;20185;-78
2023/09/08 00:54:18;;;;;;;6.63;6.03;;;;;;;;;;4959430;28;20600;-78
2023/09/08 00:56:46;;;;;;;7.00;6.30;;;17.00;99.90;;;;;;4978311;28;20264;-76
2023/09/08 00:59:12;;;;;;;7.72;5.97;;;;;;;;;;4977937;28;20189;-80
2023/09/08 01:01:38;;;;;;;6.22;5.70;;;;;;;;;;4977521;28;20244;-79
2023/09/08 01:04:04;;;;;;;6.40;5.78;;;18.20;99.90;;;;;;4977947;28;20212;-78
2023/09/08 01:06:32;;;;;;;6.90;6.20;;;17.10;99.90;;;;;;4977218;28;20311;-78
2023/09/08 01:08:58;;;;;;;7.00;6.32;;;17.00;99.90;;;;;;4976053;28;20185;-78
2023/09/08 01:11:25;;;;;;;6.78;6.07;;;17.00;99.90;;;;;;4959724;28;20173;-79
2023/09/08 01:13:51;;;;;;;6.65;6.00;;;17.00;99.90;;;;;;4957240;28;20201;-78
2023/09/08 01:16:17;;;;;;;6.65;5.70;;;17.00;99.90;;;;;;4958488;28;20552;-79
2023/09/08 01:18:44;;;;;;;7.47;6.68;;;16.90;99.90;;;;;;4976969;28;20208;-77
2023/09/08 01:21:31;;;;;;;7.10;6.40;;;17.00;99.90;;;;;;4977237;28;20187;-81
2023/09/08 01:24:20;;;;;;;6.97;6.32;;;17.00;99.90;;;;;;4959648;28;20220;-80
2023/09/08 01:26:47;;;;;;;8.15;6.80;;;17.00;99.90;;;;;;4977150;28;20205;-79
2023/09/08 01:29:14;;;;;;;6.65;6.03;;;17.10;99.90;;;;;;4978164;28;20551;-80
2023/09/08 01:31:40;;;;;;;7.22;6.50;;;17.00;99.90;;;;;;4960317;28;20619;-79
2023/09/08 01:34:06;;;;;;;6.22;5.63;;;17.00;99.90;;;;;;4977970;28;20244;-79
2023/09/08 01:36:35;;;;;;;6.68;6.07;;;17.00;99.90;;;;;;4960130;28;20762;-79
2023/09/08 01:39:02;;;;;;;8.27;6.10;;;16.90;99.90;;;;;;4960145;28;20200;-79
2023/09/08 01:41:27;;;;;;;7.88;6.38;;;17.00;99.90;;;;;;4977517;28;20671;-77
2023/09/08 01:43:54;;;;;;;6.55;5.80;;;17.00;99.90;;;;;;4959437;28;20239;-78
2023/09/08 01:46:20;;;;;;;6.38;5.78;;;17.00;99.90;;;;;;4957793;28;20220;-79
2023/09/08 01:48:45;;;;;;;6.80;6.15;;;17.00;99.90;;;;;;4959166;28;20555;-79
2023/09/08 01:51:11;;;;;;;6.70;6.10;;;16.90;99.90;;;;;;4977565;28;20189;-78
2023/09/08 01:53:36;;;;;;;6.80;6.20;;;16.90;99.90;;;;;;4959291;28;20288;-80
2023/09/08 01:56:02;;;;;;;8.93;6.68;;;16.90;99.90;;;;;;4959477;28;20185;-79
2023/09/08 01:58:29;;;;;;;6.90;6.22;;;16.90;99.90;;;;;;4976972;28;20189;-79
2023/09/08 02:00:55;;;;;;;6.55;5.95;;;16.90;99.90;;;;;;4976074;28;20215;-77
2023/09/08 02:03:21;;;;;;;6.80;6.20;;;17.00;99.90;;;;;;4976781;28;20208;-79
2023/09/08 02:05:46;;;;;;;7.00;6.30;;;16.80;99.90;;;;;;4959317;28;20317;-79
2023/09/08 02:08:12;;;;;;;8.50;6.78;;;16.80;99.90;;;;;;4959434;28;20556;-77
2023/09/08 02:10:40;;;;;;;7.38;6.70;;;16.70;99.90;;;;;;4976873;28;20173;-78
2023/09/08 02:13:06;;;;;;;8.00;7.28;;;16.70;99.90;;;;;;4976716;28;20727;-78
2023/09/08 02:15:34;;;;;;;7.88;6.90;;;16.70;99.90;;;;;;4977427;28;20185;-78
2023/09/08 02:18:00;;;;;;;8.65;6.90;;;;;;;;;;4977147;28;20668;-78
2023/09/08 02:20:25;;;;;;;9.05;7.25;;;16.60;1.00;;;;;;4969464;28;20186;-78
2023/09/08 02:22:54;;;;;;;8.25;7.45;;;16.60;99.90;;;;;;4976682;28;20760;-80
2023/09/08 02:25:20;;;;;;;8.00;7.20;;;16.60;99.90;;;;;;4959330;28;20220;-78
2023/09/08 02:27:46;;;;;;;8.15;7.45;;;16.60;99.90;;;;;;4980454;28;20192;-79
2023/09/08 02:30:11;;;;;;;7.97;7.18;;;16.50;99.90;;;;;;4980896;28;20185;-78
2023/09/08 02:32:37;;;;;;;7.20;6.60;;;16.50;99.90;;;;;;4961612;28;20208;-77
2023/09/08 02:35:03;;;;;;;7.80;7.10;;;16.60;1.00;;;;;;4980078;28;20188;-81
2023/09/08 02:37:28;;;;;;;8.00;7.25;;;16.20;1.00;;;;;;4979615;28;20192;-79
2023/09/08 02:39:54;;;;;;;8.57;7.72;;;16.10;1.00;;;;;;4979218;28;20177;-79
2023/09/08 02:42:19;;;;;;;13.52;8.48;;;16.10;1.00;;;;;;4980004;28;20185;-78
2023/09/08 02:44:45;;;;;;;10.20;7.72;;;16.10;1.00;;;;;;4980709;28;20216;-78
2023/09/08 02:47:10;;;;;;;7.97;7.18;;;16.10;1.00;;;;;;4980430;28;20391;-78
2023/09/08 02:49:36;;;;;;;9.85;8.02;;;16.20;1.00;;;;;;4963268;28;20197;-78
2023/09/08 02:52:02;;;;;;;9.00;8.05;;;16.20;1.00;;;;;;4981779;28;20216;-78
2023/09/08 02:54:27;;;;;;;8.23;7.45;;;16.30;1.00;;;;;;4980336;28;20555;-76
2023/09/08 02:56:53;;;;;;;8.30;7.50;;;16.30;1.00;;;;;;4980012;28;20228;-77
2023/09/08 02:59:19;;;;;;;7.93;7.03;;;16.30;1.00;;;;;;4961528;28;20766;-78
2023/09/08 03:01:44;;;;;;;9.02;8.13;;;16.40;1.00;;;;;;4980224;28;20192;-79
2023/09/08 03:04:10;;;;;;;8.13;7.32;;;16.30;1.00;;;;;;4962736;28;20215;-79
2023/09/08 03:06:35;;;;;;;8.85;7.93;;;16.40;1.00;;;;;;4979776;28;20205;-78
2023/09/08 03:09:01;;;;;;;8.43;7.60;;;16.20;1.00;;;;;;4963702;28;20192;-77
2023/09/08 03:11:26;;;;;;;9.00;8.13;;;16.10;1.00;;;;;;4980596;28;20256;-78
2023/09/08 03:13:52;;;;;;;9.50;8.50;;;15.90;1.00;;;;;;4962858;28;20414;-80
2023/09/08 03:16:18;;;;;;;8.63;7.70;;;15.90;1.00;;;;;;4963589;28;20249;-79
2023/09/08 03:18:43;;;;;;;8.57;7.40;;;16.10;1.00;;;;;;4962710;28;20576;-79
2023/09/08 03:21:09;;;;;;;8.57;7.65;;;16.20;1.00;;;;;;4961979;28;20192;-79
2023/09/08 03:23:39;;;;;;;8.52;7.72;;;16.20;1.00;;;;;;4962091;28;20239;-79
2023/09/08 03:26:05;;;;;;;9.45;7.85;;;16.00;1.00;;;;;;4962771;28;20204;-79
2023/09/08 03:28:32;;;;;;;8.13;7.32;;;16.10;1.00;;;;;;4979629;28;20733;-77
2023/09/08 03:30:58;;;;;;;9.57;7.80;;;16.10;1.00;;;;;;4978977;28;20181;-79
2023/09/08 03:33:23;;;;;;;8.93;8.05;;;16.30;1.00;;;;;;4978136;28;20231;-80
2023/09/08 03:35:49;;;;;;;8.93;8.07;;;16.10;1.00;;;;;;4977951;28;20185;-77
2023/09/08 03:38:14;;;;;;;12.00;8.90;;;15.90;1.00;;;;;;4977214;28;20248;-80
2023/09/08 03:40:40;;;;;;;8.73;7.90;;;16.00;1.00;;;;;;4975955;28;20183;-79
2023/09/08 03:43:06;;;;;;;8.70;7.80;;;16.00;1.00;;;;;;4972505;28;20765;-79
2023/09/08 03:45:32;;;;;;;8.40;7.60;;;16.10;1.00;;;;;;4972093;28;20197;-79
2023/09/08 03:47:57;;;;;;;8.57;7.68;;;15.70;1.00;;;;;;4978364;28;20557;-79
2023/09/08 03:50:24;;;;;;;7.95;7.15;;;16.20;1.00;;;;;;4960886;28;20185;-78
2023/09/08 03:52:50;;;;;;;8.20;7.35;;;16.10;1.00;;;;;;4978682;28;20509;-78
2023/09/08 03:55:16;;;;;;;8.85;7.75;;;16.20;1.00;;;;;;4979037;28;20193;-78
2023/09/08 03:57:42;;;;;;;9.02;8.13;;;16.10;1.00;;;;;;4961598;28;20208;-79
2023/09/08 04:00:10;;;;;;;8.68;7.88;;;16.00;1.00;;;;;;4980278;28;20539;-80
2023/09/08 04:02:36;;;;;;;8.95;8.05;;;16.00;1.00;;;;;;4979922;28;20212;-79
2023/09/08 04:05:02;;;;;;;8.50;7.70;;;16.20;1.00;;;;;;4979829;28;20200;-77
2023/09/08 04:07:27;;;;;;;8.65;7.78;;;16.10;1.00;;;;;;4978420;28;20661;-77
2023/09/08 04:09:53;;;;;;;8.35;7.07;;;16.10;1.00;;;;;;4962181;28;20181;-79
2023/09/08 04:12:19;;;;;;;8.25;7.43;;;16.10;1.00;;;;;;4960965;28;20189;-80
2023/09/08 04:14:44;;;;;;;8.32;7.53;;;16.10;1.00;;;;;;4978195;28;20188;-79
2023/09/08 04:17:10;;;;;;;8.52;7.72;;;16.00;1.00;;;;;;4978234;28;20188;-78
2023/09/08 04:19:35;;;;;;;9.43;8.48;;;16.00;1.00;;;;;;4962285;28;20188;-78
2023/09/08 04:22:01;;;;;;;8.90;8.00;;;16.10;1.00;;;;;;4978654;28;20672;-79
2023/09/08 04:24:27;;;;;;;9.05;7.85;;;16.00;1.00;;;;;;4960617;28;20231;-77
2023/09/08 04:26:52;;;;;;;8.18;7.38;;;16.00;1.00;;;;;;4978209;28;20213;-79
2023/09/08 04:29:18;;;;;;;8.15;7.40;;;16.00;1.00;;;;;;4961264;28;20181;-79
2023/09/08 04:31:44;;;;;;;8.23;7.43;;;16.10;1.00;;;;;;4961294;28;20184;-78
2023/09/08 04:34:10;;;;;;;8.77;7.70;;;16.10;1.00;;;;;;4979832;28;20689;-79
2023/09/08 04:36:35;;;;;;;10.68;8.25;;;16.00;1.00;;;;;;4962679;28;20216;-78
2023/09/08 04:39:01;;;;;;;10.55;7.72;;;16.00;1.00;;;;;;4980275;28;20678;-79
2023/09/08 04:41:26;;;;;;;8.75;7.88;;;15.70;1.00;;;;;;4962820;28;20193;-79
2023/09/08 04:43:52;;;;;;;9.73;7.32;;;15.80;1.00;;;;;;4979807;28;20212;-79
2023/09/08 04:46:18;;;;;;;9.07;8.18;;;15.90;1.00;;;;;;4961535;28;20239;-81
2023/09/08 04:48:43;;;;;;;8.50;7.70;;;15.90;1.00;;;;;;4977952;28;20189;-79
2023/09/08 04:51:09;;;;;;;9.00;8.10;;;16.00;1.00;;;;;;4977638;28;20181;-78
2023/09/08 04:53:36;;;;;;;7.80;7.05;;;15.90;1.00;;;;;;4977868;28;20205;-79
2023/09/08 04:56:01;;;;;;;8.82;8.02;;;16.00;1.00;;;;;;4978122;28;20188;-79
2023/09/08 04:58:27;;;;;;;8.23;7.35;;;15.90;1.00;;;;;;4978228;28;20191;-79
2023/09/08 05:00:53;;;;;;;8.82;7.93;;;16.20;1.00;;;;;;4961813;28;20184;-78
2023/09/08 05:03:18;;;;;;;8.80;7.95;;;16.10;1.00;;;;;;4977934;28;20216;-78
2023/09/08 05:05:44;;;;;;;8.48;7.68;;;15.90;1.00;;;;;;4961104;28;20212;-79
2023/09/08 05:08:10;;;;;;;8.80;8.00;;;15.90;1.00;;;;;;4961339;28;20259;-79
2023/09/08 05:10:36;;;;;;;9.00;8.10;;;16.00;1.00;;;;;;4960752;28;20268;-79
2023/09/08 05:13:01;;;;;;;8.10;7.30;;;16.00;1.00;;;;;;4979176;28;20207;-80
2023/09/08 05:15:27;;;;;;;8.48;7.57;;;15.90;1.00;;;;;;4977867;28;20180;-78
2023/09/08 05:17:53;;;;;;;10.70;7.85;;;15.90;1.00;;;;;;4959554;28;20232;-80
2023/09/08 05:20:18;;;;;;;8.07;7.38;;;16.00;1.00;;;;;;4959743;28;20192;-79
2023/09/08 05:22:44;;;;;;;8.95;8.05;;;16.00;1.00;;;;;;4976424;28;20295;-80
2023/09/08 05:25:10;;;;;;;8.48;7.68;;;16.10;1.00;;;;;;4959233;28;20616;-77
2023/09/08 05:27:36;;;;;;;9.27;8.38;;;16.10;1.00;;;;;;4960175;28;20661;-79
2023/09/08 05:30:01;;;;;;;9.95;8.95;;;16.10;1.00;;;;;;4976217;28;20196;-79
2023/09/08 05:32:27;;;;;;;8.55;7.75;;;16.10;1.00;;;;;;4976684;28;20506;-78
2023/09/08 05:34:52;;;;;;;10.90;8.48;;;18.10;1.00;;;;;;4959360;28;20181;-78
2023/09/08 05:37:18;;;;;;;9.18;8.38;;;15.80;1.00;;;;;;4977694;28;20627;-79
2023/09/08 05:39:44;;;;;;;10.25;8.90;;;15.70;99.90;;;;;;4977586;28;20197;-78
2023/09/08 05:42:09;;;;;;;12.50;9.30;;;15.90;98.30;;;;;;4976958;28;20540;-78
2023/09/08 05:44:35;;;;;;;9.05;8.25;;;15.90;99.90;;;;;;4976273;28;20248;-79
2023/09/08 05:47:00;;;;;;;9.50;8.23;;;16.00;89.50;;;;;;4976757;28;20201;-77
2023/09/08 05:49:26;;;;;;;9.88;8.88;;;16.00;1.00;;;;;;4958519;28;20189;-77
2023/09/08 05:51:52;;;;;;;10.13;9.20;;;16.20;12.70;;;;;;4959164;28;20664;-78
2023/09/08 05:54:17;;;;;;;8.60;7.80;;;16.20;57.80;;;;;;4977096;28;20323;-79
2023/09/08 05:56:44;;;;;;;11.38;9.40;;;16.30;13.90;;;;;;4976697;28;20217;-79
2023/09/08 05:59:09;;;;;;;10.40;9.40;;;16.20;99.90;;;;;;4976223;28;20213;-79
2023/09/08 06:01:36;;;;;;;9.57;8.57;;;16.20;99.90;;;;;;4982483;28;20192;-77
2023/09/08 06:04:02;;;;;;;10.63;9.63;;;16.00;1.00;;;;;;4984521;28;20613;-82
2023/09/08 06:06:29;;;;;;;12.85;10.55;;;16.00;1.00;;;;;;4968457;28;20268;-80
2023/09/08 06:08:54;;;;;;;13.13;11.73;;;15.90;99.90;;;;;;4986423;28;20236;-78
2023/09/08 06:11:20;;;;;;;12.35;11.13;;;15.90;99.90;;;;;;4985595;28;20185;-79
2023/09/08 06:13:46;;;;;;;11.32;10.20;;;15.80;1.00;;;;;;4986724;28;20216;-79
2023/09/08 06:16:11;;;;;;;12.35;11.15;;;16.10;1.00;;;;;;4968814;28;20195;-77
2023/09/08 06:18:39;;;;;;;11.77;10.57;;;16.20;1.00;;;;;;4986550;28;20185;-78
2023/09/08 06:21:08;;;;;;;11.02;9.93;;;16.20;1.00;;;;;;4986350;28;20637;-78
2023/09/08 06:23:34;;;;;;;11.88;10.77;;;16.20;99.90;;;;;;4983029;28;20228;-78
2023/09/08 06:26:00;;;;;;;12.23;11.07;;;16.20;1.00;;;;;;4981389;28;20674;-78
2023/09/08 06:28:29;;;;;;;10.38;9.38;;;16.30;1.00;;;;;;4982124;28;20181;-77
2023/09/08 06:30:54;;;;;;;11.27;10.15;;;16.40;99.90;;;;;;4982387;28;20195;-79
2023/09/08 06:33:22;;;;;;;11.98;10.80;;;16.50;1.00;;;;;;4981581;28;20685;-78
2023/09/08 06:35:48;;;;;;;13.40;10.93;;;16.60;99.90;;;;;;4981095;28;20180;-78
2023/09/08 06:38:13;;;;;;;12.05;10.95;;;16.70;1.00;;;;;;4981180;28;20531;-76
2023/09/08 06:40:39;;;;;;;12.27;11.07;;;16.80;1.00;;;;;;4981498;28;20240;-77
2023/09/08 06:43:05;;;;;;;12.95;11.65;;;16.90;1.00;;;;;;4980433;28;20267;-76
2023/09/08 06:45:30;;;;;;;12.75;11.10;;;17.00;1.00;;;;;;4962462;28;20260;-80
2023/09/08 06:47:56;;;;;;;11.55;10.45;;;17.10;1.00;;;;;;4979579;28;20177;-77
2023/09/08 06:50:23;;;;;;;12.23;10.57;;;17.20;1.00;;;;;;4962097;28;20212;-78
2023/09/08 06:52:50;;;;;;;10.73;9.63;;;17.40;1.00;;;;;;4978329;28;20233;-77
2023/09/08 06:55:16;;;;;;;11.90;9.38;;;18.00;1.00;;;;;;4978443;28;20189;-77
2023/09/08 06:57:45;;;;;;;11.02;8.48;;;18.60;99.90;;;;;;4979303;28;20193;-77
2023/09/08 07:00:11;;;;;;;9.60;8.70;;;18.90;10.30;;;;;;4978334;28;20225;-79
2023/09/08 07:02:38;;;;;;;9.55;8.57;;;18.90;1.00;;;;;;4977396;28;20200;-79
2023/09/08 07:05:08;;;;;;;10.30;9.20;;;18.80;1.00;;;;;;4977695;28;20193;-78
2023/09/08 07:07:37;;;;;;;9.40;8.50;;;18.80;1.00;;;;;;4958680;28;20177;-76
2023/09/08 07:10:04;;;;;;;9.40;8.30;;;18.80;1.00;;;;;;4957721;28;20207;-79
2023/09/08 07:12:30;;;;;;;9.07;8.13;;;18.80;1.00;;;;;;4954664;28;20279;-78
2023/09/08 07:14:56;;;;;;;9.23;8.25;;;18.90;1.00;;;;;;4972747;28;20181;-79
2023/09/08 07:17:23;;;;;;;8.88;8.07;;;19.00;1.00;;;;;;4979122;28;20204;-80
2023/09/08 07:19:49;;;;;;;8.40;7.60;;;19.10;1.00;;;;;;4976275;28;20207;-79
2023/09/08 07:22:15;;;;;;;8.45;7.68;;;19.20;1.00;;;;;;4978832;28;20236;-78
2023/09/08 07:24:40;;;;;;;8.75;7.63;;;19.40;1.00;;;;;;4965047;28;20220;-79
2023/09/08 07:27:06;;;;;;;7.90;7.07;;;19.50;1.00;;;;;;4965868;28;20240;-80
2023/09/08 07:29:32;;;;;;;7.85;7.13;;;19.60;1.00;;;;;;4982347;28;20200;-78
2023/09/08 07:31:58;;;;;;;8.50;6.88;;;19.70;1.00;;;;;;4981746;28;20192;-82
2023/09/08 07:34:23;;;;;;;7.40;6.70;;;19.90;1.00;;;;;;4982332;28;20232;-79
2023/09/08 07:36:49;;;;;;;8.27;7.25;;;20.00;1.00;;;;;;4982378;28;20192;-78
2023/09/08 07:39:15;;;;;;;8.57;6.63;;;20.10;1.00;;;;;;4965045;28;20196;-78
2023/09/08 07:41:40;;;;;;;9.65;6.60;;;20.20;1.00;;;;;;4963896;28;20184;-77
2023/09/08 07:44:07;;;;;;;8.88;6.93;;;20.30;1.00;;;;;;4965217;28;20295;-81
2023/09/08 07:46:32;;;;;;;6.72;6.13;;;20.40;99.90;;;;;;4982681;28;20264;-80
2023/09/08 07:48:59;;;;;;;7.20;6.50;;;20.50;99.90;;;;;;4982080;28;20196;-79
2023/09/08 07:51:25;;;;;;;7.35;6.15;;;20.60;99.90;;;;;;4982101;28;20597;-77
2023/09/08 07:53:51;;;;;;;9.20;6.05;;;20.80;99.90;;;;;;4964158;28;20640;-78
2023/09/08 07:56:17;;;;;;;8.23;6.07;;;20.90;99.90;;;;;;4979637;28;20200;-80
2023/09/08 07:58:42;;;;;;;6.35;5.65;;;21.00;99.90;;;;;;4979676;28;20677;-77
2023/09/08 08:01:08;;;;;;;6.32;5.72;;;21.10;99.90;;;;;;4959639;28;20192;-81
2023/09/08 08:03:37;;;;;;;6.35;5.75;;;21.10;99.90;;;;;;4978278;28;20204;-79
2023/09/08 08:06:03;;;;;;;6.00;5.50;;;21.20;99.90;;;;;;4976999;28;20205;-77
2023/09/08 08:08:28;;;;;;;6.45;5.68;;;21.30;99.90;;;;;;4977468;28;20241;-79
2023/09/08 08:10:54;;;;;;;5.90;4.88;;;21.50;99.90;;;;;;4959446;28;20181;-78
2023/09/08 08:13:19;;;;;;;7.28;5.55;;;21.60;99.90;;;;;;4956106;28;20204;-79
2023/09/08 08:15:47;;;;;;;5.88;5.07;;;21.80;99.90;;;;;;4973782;28;20185;-77
2023/09/08 08:18:13;;;;;;;7.30;4.65;;;21.90;99.90;;;;;;4973624;28;20665;-78
2023/09/08 08:20:39;;;;;;;5.70;5.20;;;22.10;99.90;;;;;;4973751;28;20189;-77
2023/09/08 08:23:06;;;;;;;6.70;5.10;;;22.20;99.90;;;;;;4973721;28;20232;-79
2023/09/08 08:25:33;;;;;;;6.55;5.30;;;22.40;99.90;;;;;;4955684;28;20208;-77
2023/09/08 08:28:00;;;;;;;6.63;5.30;;;22.50;90.00;;;;;;4956537;28;20188;-78
2023/09/08 08:30:26;;;;;;;7.47;5.32;;;22.60;68.00;;;;;;4974056;28;20181;-79
2023/09/08 08:32:53;;;;;;;6.15;5.55;;;22.70;61.10;;;;;;4956157;28;20201;-76
2023/09/08 08:35:19;;;;;;;7.72;5.20;;;22.70;32.50;;;;;;4956836;28;20184;-78
2023/09/08 08:37:45;;;;;;;6.47;5.38;;;22.80;33.40;;;;;;4973752;28;20672;-79
2023/09/08 08:40:12;;;;;;;6.25;5.13;;;22.90;30.50;;;;;;4974150;28;20200;-79
2023/09/08 08:42:38;;;;;;;5.85;5.15;;;23.10;13.00;;;;;;4974223;28;20204;-78
2023/09/08 08:45:04;;;;;;;8.65;5.90;;;23.10;1.00;;;;;;4955875;28;20236;-76
2023/09/08 08:47:30;;;;;;;7.43;4.97;;;23.40;1.00;;;;;;4955887;28;20187;-76
2023/09/08 08:49:58;;;;;;;8.40;5.72;;;23.40;1.00;;;;;;4955597;28;20193;-76
2023/09/08 08:52:27;;;;;;;5.30;4.75;;;23.50;1.00;;;;;;4973301;28;20177;-77
2023/09/08 08:54:54;;;;;;;6.65;5.10;;;23.50;1.00;;;;;;4973212;28;20192;-77
2023/09/08 08:57:21;;;;;;;9.07;4.95;;;23.70;1.00;;;;;;4973432;28;20208;-77
2023/09/08 08:59:49;;;;;;;5.85;5.35;;;23.80;1.00;;;;;;4974088;28;20204;-78
2023/09/08 09:02:14;;;;;;;8.23;5.03;;;23.80;1.00;;;;;;4955479;28;20181;-79
2023/09/08 09:04:41;;;;;;;6.63;4.97;;;23.80;1.00;;;;;;4973418;28;20191;-77
2023/09/08 09:07:07;;;;;;;5.72;4.65;;;23.90;1.00;;;;;;4973579;28;20201;-78
2023/09/08 09:09:33;;;;;;;5.38;4.60;;;24.10;1.00;;;;;;4974408;28;20188;-78
2023/09/08 09:11:58;;;;;;;7.15;4.60;;;24.10;1.00;;;;;;4973666;28;20533;-79
2023/09/08 09:14:24;;;;;;;5.75;4.47;;;24.30;1.00;;;;;;4955849;28;20208;-77
2023/09/08 09:16:50;;;;;;;5.85;4.32;;;24.30;1.00;;;;;;4956210;28;20216;-78
2023/09/08 09:19:31;;;;;;;4.88;4.43;;;24.30;1.00;;;;;;4973419;28;20195;-80
2023/09/08 09:21:57;;;;;;;5.72;4.35;;;24.40;1.00;;;;;;4956157;28;20279;-77
2023/09/08 09:24:36;;;;;;;5.20;4.68;;;24.40;1.00;;;;;;4956006;28;20252;-77
2023/09/08 09:27:05;;;;;;;4.72;4.20;;;24.50;1.00;;;;;;4973521;28;20208;-78
2023/09/08 09:29:31;;;;;;;5.35;4.38;;;24.60;1.00;;;;;;4972944;28;20209;-77
2023/09/08 09:32:05;;;;;;;6.78;4.75;;;24.70;1.00;;;;;;4973149;28;20195;-78
2023/09/08 09:34:31;;;;;;;4.97;4.50;;;24.70;1.00;;;;;;4971612;28;20251;-78
2023/09/08 09:36:57;;;;;;;4.55;3.97;;;24.80;1.00;;;;;;4972492;28;20283;-79
2023/09/08 09:39:24;;;;;;;6.75;4.57;;;25.00;1.00;;;;;;4971977;28;20248;-78
2023/09/08 09:41:54;;;;;;;5.20;4.38;;;25.10;1.00;;;;;;4971653;28;20188;-77
2023/09/08 09:44:21;;;;;;;6.20;4.30;;;25.20;1.00;;;;;;4954182;28;20581;-78
2023/09/08 09:46:47;;;;;;;4.75;4.13;;;25.40;1.00;;;;;;4972223;28;20231;-77
2023/09/08 09:49:14;;;;;;;4.55;4.15;;;25.40;1.00;;;;;;4954843;28;20244;-76
2023/09/08 09:51:42;;;;;;;6.53;4.75;;;25.40;1.00;;;;;;4971951;28;20193;-77
2023/09/08 09:54:08;;;;;;;7.43;4.20;;;25.50;1.00;;;;;;4953961;28;20212;-77
2023/09/08 09:56:36;;;;;;;5.70;4.22;;;25.50;1.00;;;;;;4971261;28;20758;-79
2023/09/08 09:59:02;;;;;;;6.07;4.32;;;25.80;1.00;;;;;;4953847;28;20571;-78
2023/09/08 10:01:29;;;;;;;6.80;4.38;;;25.80;1.00;;;;;;4971536;28;20193;-77
2023/09/08 10:03:55;;;;;;;6.65;4.35;;;26.00;1.00;;;;;;4970760;28;20263;-78
2023/09/08 10:06:22;;;;;;;5.82;4.40;;;25.80;1.00;;;;;;4971523;28;20220;-79
2023/09/08 10:08:48;;;;;;;6.55;4.60;;;25.80;1.00;;;;;;4971348;28;20185;-77
2023/09/08 10:11:16;;;;;;;4.43;3.90;;;25.90;1.00;;;;;;4970939;28;20177;-78
2023/09/08 10:13:47;;;;;;;5.18;4.18;;;26.00;1.00;;;;;;4970709;28;20219;-77
2023/09/08 10:16:16;;;;;;;4.40;3.72;;;26.00;1.00;;;;;;4970672;28;20181;-80
2023/09/08 10:18:45;;;;;;;5.05;4.53;;;26.00;1.00;;;;;;4970103;28;20197;-80
2023/09/08 10:21:13;;;;;;;6.05;4.43;;;26.10;1.00;;;;;;4971412;28;20265;-78
2023/09/08 10:23:42;;;;;;;5.40;4.20;;;26.20;99.90;;;;;;4954690;28;20223;-78
2023/09/08 10:26:10;;;;;;;4.78;4.28;;;26.30;99.90;;;;;;4972829;28;20282;-80
2023/09/08 10:28:37;;;;;;;6.25;3.88;;;26.40;99.90;;;;;;4954952;28;20249;-77
2023/09/08 10:31:04;;;;;;;7.00;4.32;;;26.40;99.90;;;;;;4973479;28;20204;-79
2023/09/08 10:33:31;;;;;;;5.38;4.28;;;26.40;99.90;;;;;;4955111;28;20193;-77
2023/09/08 10:35:58;;;;;;;7.53;4.50;;;26.50;99.90;;;;;;4955862;28;20188;-78
2023/09/08 10:38:25;;;;;;;5.38;4.10;;;26.60;99.90;;;;;;4973011;28;20209;-77
2023/09/08 10:40:51;;;;;;;5.60;4.30;;;26.60;99.90;;;;;;4972113;28;20181;-77
2023/09/08 10:43:18;;;;;;;4.63;4.20;;;26.60;99.90;;;;;;4972409;28;20224;-76
2023/09/08 10:45:45;;;;;;;5.88;4.15;;;26.70;99.90;;;;;;4955168;28;20821;-80
2023/09/08 10:48:10;;;;;;;6.38;4.15;;;26.80;99.90;;;;;;4975585;28;20264;-76
2023/09/08 10:50:41;;;;;;;5.75;4.35;;;26.80;99.90;;;;;;4958402;28;20281;-78
2023/09/08 10:53:17;;;;;;;4.93;4.53;;;26.80;99.90;;;;;;4957221;28;20235;-77
2023/09/08 10:55:53;;;;;;;7.05;4.20;;;27.00;99.90;;;;;;4960156;28;20237;-79
2023/09/08 10:58:42;;;;;;;5.05;4.15;;;27.10;99.90;;;;;;4981812;28;20192;-79
2023/09/08 11:01:13;;;;;;;4.60;4.07;;;27.10;99.90;;;;;;4981849;28;20181;-80
2023/09/08 11:03:39;;;;;;;4.78;3.72;;;27.10;99.90;;;;;;4981710;28;20205;-77
2023/09/08 11:06:08;;;;;;;6.15;4.15;;;27.20;99.90;;;;;;4980102;28;20788;-79
2023/09/08 11:08:37;;;;;;;4.40;4.00;;;27.30;99.90;;;;;;4960412;28;20177;-79
2023/09/08 11:11:02;;;;;;;6.43;4.10;;;27.20;99.90;;;;;;4980952;28;20735;-80
2023/09/08 11:13:28;;;;;;;4.43;3.85;;;27.20;99.90;;;;;;4979122;28;20240;-80
2023/09/08 11:15:54;;;;;;;6.97;4.30;;;27.30;99.90;;;;;;4980826;28;20187;-81
2023/09/08 11:18:30;;;;;;;4.30;3.80;;;27.30;99.90;;;;;;4962083;28;20188;-78
2023/09/08 11:20:57;;;;;;;6.00;4.20;;;27.30;99.90;;;;;;4979884;28;20236;-79
2023/09/08 11:23:23;;;;;;;4.50;4.10;;;27.40;99.90;;;;;;4980563;28;21155;-79
2023/09/08 11:25:51;;;;;;;5.65;3.97;;;27.30;99.90;;;;;;4981205;28;20244;-79
2023/09/08 11:28:22;;;;;;;4.40;4.00;;;27.30;99.90;;;;;;4981005;28;20185;-80
2023/09/08 11:30:48;;;;;;;4.47;4.07;;;27.40;99.90;;;;;;4980435;28;20189;-80
2023/09/08 11:33:18;;;;;;;5.45;3.85;;;27.40;99.90;;;;;;4980655;28;20216;-78
2023/09/08 11:35:47;;;;;;;5.07;4.57;;;27.50;99.90;;;;;;4962973;28;20803;-78
2023/09/08 11:38:12;;;;;;;5.78;4.50;;;27.50;99.90;;;;;;4979995;28;20181;-78
2023/09/08 11:40:38;;;;;;;6.65;4.07;;;27.40;99.90;;;;;;4980329;28;20216;-79
2023/09/08 11:43:05;;;;;;;6.85;3.92;;;27.30;99.90;;;;;;4961479;28;20315;-80
2023/09/08 11:45:34;;;;;;;4.65;4.20;;;27.40;99.90;;;;;;4959605;28;20216;-78
2023/09/08 11:48:00;;;;;;;5.22;4.30;;;27.40;99.90;;;;;;4979002;28;20673;-78
2023/09/08 11:50:26;;;;;;;5.13;4.13;;;27.30;99.90;;;;;;4980382;28;20183;-78
2023/09/08 11:52:53;;;;;;;7.82;3.95;;;27.40;99.90;;;;;;4961446;28;20357;-78
2023/09/08 11:55:20;;;;;;;5.35;3.60;;;27.50;99.90;;;;;;4980103;28;20180;-78
2023/09/08 11:57:50;;;;;;;5.40;3.80;;;26.30;99.90;;;;;;4974267;28;20184;-77
2023/09/08 12:00:18;;;;;;;6.47;4.40;;;27.60;99.90;;;;;;4971842;28;20203;-77
2023/09/08 12:02:44;;;;;;;4.60;4.20;;;27.70;99.90;;;;;;4972197;28;20229;-77
2023/09/08 12:05:21;;;;;;;6.20;4.15;;;27.80;99.90;;;;;;4966787;28;20223;-76
2023/09/08 12:07:47;;;;;;;5.85;4.13;;;27.80;99.90;;;;;;4955187;28;20208;-78
2023/09/08 12:10:14;;;;;;;4.28;3.88;;;27.90;99.90;;;;;;4972552;28;20177;-79
2023/09/08 12:12:49;;;;;;;6.07;3.80;;;28.00;99.90;;;;;;4974057;28;20204;-77
2023/09/08 12:15:47;;;;;;;7.40;4.30;;;27.90;99.90;;;;;;4974133;28;20213;-77
2023/09/08 12:18:17;;;;;;;4.75;4.30;;;27.90;99.90;;;;;;4904614;28;20665;-77
2023/09/08 12:20:44;;;;;;;6.55;4.20;;;27.80;99.90;;;;;;4973588;28;20807;-77
2023/09/08 12:23:17;;;;;;;4.47;4.00;;;28.00;99.90;;;;;;4956215;28;20219;-79
2023/09/08 12:25:48;;;;;;;5.00;4.18;;;28.00;99.90;;;;;;4955406;28;20798;-77
2023/09/08 12:28:13;;;;;;;4.28;3.83;;;28.10;99.90;;;;;;4955255;28;20661;-79
2023/09/08 12:30:39;;;;;;;4.70;3.80;;;28.20;99.90;;;;;;4972936;28;20173;-79
2023/09/08 12:33:05;;;;;;;4.60;3.58;;;28.20;99.90;;;;;;4972418;28;20283;-77
2023/09/08 12:35:31;;;;;;;6.80;4.28;;;28.10;99.90;;;;;;4972783;28;20265;-76
2023/09/08 12:38:05;;;;;;;4.00;3.60;;;27.90;99.90;;;;;;4954677;28;20185;-77
2023/09/08 12:40:34;;;;;;;5.15;4.03;;;27.90;99.90;;;;;;4972019;28;20187;-77
2023/09/08 12:42:59;;;;;;;4.65;3.83;;;28.10;99.90;;;;;;4971284;28;20196;-77
2023/09/08 12:45:27;;;;;;;4.40;3.78;;;28.30;99.90;;;;;;4971897;28;20200;-77
2023/09/08 12:47:57;;;;;;;4.18;3.78;;;28.20;99.90;;;;;;4954129;28;20692;-78
2023/09/08 12:50:23;;;;;;;5.30;3.88;;;28.30;99.90;;;;;;4954336;28;20188;-78